createdAt,value
2023-01-07T00:02:01.135Z,8.77
2023-01-07T00:07:04.468Z,7.73
2023-01-07T00:12:07.614Z,7.47
2023-01-07T00:17:10.763Z,8.33
2023-01-07T00:22:14.258Z,7.70
2023-01-07T00:27:17.914Z,6.83
2023-01-07T00:32:21.469Z,5.93
2023-01-07T00:37:43.006Z,6.60
2023-01-07T00:42:55.436Z,5.80
2023-01-07T00:47:59.622Z,5.90
2023-01-07T00:53:03.082Z,6.70
2023-01-07T00:58:06.488Z,5.27
2023-01-07T01:03:11.776Z,5.30
2023-01-07T01:08:14.998Z,5.67
2023-01-07T01:13:19.670Z,5.57
2023-01-07T01:18:22.936Z,6.27
2023-01-07T01:23:26.033Z,5.47
2023-01-07T01:28:29.071Z,6.67
2023-01-07T01:33:32.697Z,6.23
2023-01-07T01:38:38.825Z,7.17
2023-01-07T01:43:43.173Z,7.63
2023-01-07T01:48:54.939Z,7.17
2023-01-07T01:53:58.253Z,6.60
2023-01-07T01:59:05.789Z,7.20
2023-01-07T02:04:12.799Z,7.67
2023-01-07T02:09:15.824Z,7.30
2023-01-07T02:15:02.125Z,7.77
2023-01-07T02:20:12.398Z,6.87
2023-01-07T02:25:46.497Z,6.73
2023-01-07T02:31:19.985Z,6.67
2023-01-07T02:36:48.636Z,7.27
2023-01-07T02:41:56.219Z,6.70
2023-01-07T02:47:03.071Z,5.73
2023-01-07T02:52:30.054Z,5.67
2023-01-07T02:57:33.466Z,5.87
2023-01-07T03:03:10.368Z,6.57
2023-01-07T03:08:38.168Z,6.73
2023-01-07T03:13:59.200Z,6.80
2023-01-07T03:19:17.403Z,7.07
2023-01-07T03:24:22.245Z,7.63
2023-01-07T03:29:25.654Z,6.13
2023-01-07T03:34:29.718Z,6.30
2023-01-07T03:39:35.008Z,5.87
2023-01-07T03:44:39.427Z,6.03
2023-01-07T03:49:42.597Z,6.80
2023-01-07T03:54:45.682Z,6.90
2023-01-07T03:59:49.837Z,10.97
2023-01-07T04:04:53.155Z,7.60
2023-01-07T04:09:57.328Z,6.57
2023-01-07T04:15:00.786Z,7.10
2023-01-07T04:20:04.283Z,6.60
2023-01-07T04:25:07.939Z,7.13
2023-01-07T04:30:11.698Z,6.73
2023-01-07T04:35:15.333Z,7.77
2023-01-07T04:40:18.442Z,7.57
2023-01-07T04:45:21.422Z,7.23
2023-01-07T04:50:25.226Z,8.10
2023-01-07T04:55:28.735Z,9.57
2023-01-07T05:00:33.282Z,28.53
2023-01-07T05:05:36.440Z,14.10
2023-01-07T05:10:40.108Z,10.87
2023-01-07T05:15:44.110Z,9.20
2023-01-07T05:20:48.646Z,9.37
2023-01-07T05:25:52.079Z,9.10
2023-01-07T05:30:55.830Z,9.63
2023-01-07T05:35:59.288Z,9.40
2023-01-07T05:41:02.415Z,9.50
2023-01-07T05:46:05.803Z,9.67
2023-01-07T05:51:08.885Z,9.10
2023-01-07T05:56:11.750Z,8.57
2023-01-07T06:01:14.924Z,9.00
2023-01-07T06:06:18.081Z,9.03
2023-01-07T06:11:21.091Z,9.97
2023-01-07T06:16:24.119Z,9.17
2023-01-07T06:21:27.095Z,10.67
2023-01-07T06:26:29.975Z,15.50
2023-01-07T06:31:33.443Z,31.57
2023-01-07T06:36:36.354Z,41.97
2023-01-07T06:41:39.481Z,33.50
2023-01-07T06:46:42.612Z,22.87
2023-01-07T06:51:45.761Z,17.33
2023-01-07T06:56:48.968Z,13.33
2023-01-07T07:01:52.739Z,10.47
2023-01-07T07:06:56.070Z,10.00
2023-01-07T07:11:58.951Z,9.83
2023-01-07T07:17:01.859Z,8.97
2023-01-07T07:22:04.974Z,8.57
2023-01-07T07:27:07.711Z,8.23
2023-01-07T07:32:10.565Z,8.40
2023-01-07T07:37:13.585Z,10.23
2023-01-07T07:42:16.615Z,10.60
2023-01-07T07:47:20.669Z,9.00
2023-01-07T07:52:23.865Z,9.13
2023-01-07T07:57:26.759Z,10.03
2023-01-07T08:02:29.821Z,15.57
2023-01-07T08:07:33.636Z,9.23
2023-01-07T08:12:38.563Z,17.57
2023-01-07T08:17:41.822Z,9.03
2023-01-07T08:22:45.219Z,7.67
2023-01-07T08:27:48.024Z,5.97
2023-01-07T08:32:50.959Z,6.00
2023-01-07T08:38:01.262Z,9.23
2023-01-07T08:43:06.562Z,16.43
2023-01-07T08:48:09.418Z,14.57
2023-01-07T08:53:12.342Z,22.13
2023-01-07T08:58:15.562Z,16.20
2023-01-07T09:03:18.741Z,17.80
2023-01-07T09:08:21.551Z,19.93
2023-01-07T09:13:24.626Z,9.23
2023-01-07T09:18:27.569Z,14.53
2023-01-07T09:23:30.643Z,17.77
2023-01-07T09:28:33.474Z,8.57
2023-01-07T09:33:36.359Z,9.57
2023-01-07T09:38:39.485Z,7.73
2023-01-07T09:44:00.565Z,9.03
2023-01-07T09:49:04.694Z,7.93
2023-01-07T09:54:20.546Z,7.80
2023-01-07T09:59:23.486Z,8.63
2023-01-07T10:04:42.895Z,10.90
2023-01-07T10:09:51.696Z,11.13
2023-01-07T10:15:22.656Z,10.77
2023-01-07T10:20:28.497Z,14.63
2023-01-07T10:25:38.290Z,34.40
2023-01-07T10:30:44.513Z,11.70
2023-01-07T10:35:56.091Z,9.13
2023-01-07T10:41:04.331Z,10.03
2023-01-07T10:46:45.464Z,9.77
2023-01-07T10:52:00.099Z,8.50
2023-01-07T10:57:21.025Z,8.73
2023-01-07T11:02:28.566Z,10.37
2023-01-07T11:07:45.062Z,9.97
2023-01-07T11:12:57.809Z,10.67
2023-01-07T11:18:04.529Z,10.87
2023-01-07T11:23:27.530Z,10.30
2023-01-07T11:28:30.735Z,10.70
2023-01-07T11:34:02.272Z,10.67
2023-01-07T11:39:10.070Z,11.00
2023-01-07T11:44:16.232Z,11.10
2023-01-07T11:49:30.320Z,14.53
2023-01-07T11:54:33.393Z,13.40
2023-01-07T11:59:36.398Z,12.80
2023-01-07T12:04:40.509Z,13.30
2023-01-07T12:09:45.035Z,11.80
2023-01-07T12:14:48.370Z,11.23
2023-01-07T12:20:29.197Z,11.30
2023-01-07T12:25:53.404Z,19.43
2023-01-07T12:31:09.314Z,13.10
2023-01-07T12:36:19.005Z,15.77
2023-01-07T12:41:34.845Z,14.73
2023-01-07T12:46:46.403Z,14.90
2023-01-07T12:52:02.211Z,12.70
2023-01-07T12:57:40.637Z,13.00
2023-01-07T13:03:02.226Z,12.63
2023-01-07T13:08:42.500Z,14.27
2023-01-07T13:13:51.971Z,15.57
2023-01-07T13:18:55.012Z,14.70
2023-01-07T13:24:56.378Z,22.27
2023-01-07T13:30:31.658Z,13.10
2023-01-07T13:36:09.948Z,11.50
2023-01-07T13:41:38.116Z,12.80
2023-01-07T13:46:43.333Z,14.47
2023-01-07T13:51:46.249Z,25.57
2023-01-07T13:56:48.997Z,27.90
2023-01-07T14:02:17.552Z,30.57
2023-01-07T14:07:20.767Z,36.87
2023-01-07T14:12:54.358Z,35.90
2023-01-07T14:18:18.000Z,40.53
2023-01-07T14:23:48.554Z,36.20
2023-01-07T14:29:17.651Z,28.23
2023-01-07T14:34:24.713Z,34.50
2023-01-07T14:39:42.118Z,30.70
2023-01-07T14:44:51.523Z,38.53
2023-01-07T14:50:39.226Z,27.10
2023-01-07T14:56:16.227Z,29.10
2023-01-07T15:01:28.019Z,28.27
2023-01-07T15:06:39.466Z,31.30
2023-01-07T15:12:01.035Z,31.43
2023-01-07T15:17:04.229Z,33.90
2023-01-07T15:22:19.083Z,47.90
2023-01-07T15:27:29.874Z,34.90
2023-01-07T15:32:51.099Z,33.40
2023-01-07T15:37:53.962Z,32.90
2023-01-07T15:42:58.376Z,33.40
2023-01-07T15:48:07.988Z,29.63
2023-01-07T15:53:11.292Z,29.33
2023-01-07T15:58:20.175Z,30.30
2023-01-07T16:03:23.611Z,29.00
2023-01-07T16:08:29.488Z,26.23
2023-01-07T16:13:33.630Z,28.07
2023-01-07T16:18:36.729Z,26.03
2023-01-07T16:23:40.226Z,22.53
2023-01-07T16:28:55.571Z,18.27
2023-01-07T16:34:00.081Z,20.83
2023-01-07T16:39:11.719Z,19.37
2023-01-07T16:44:42.419Z,23.50
2023-01-07T16:49:45.445Z,26.20
2023-01-07T16:54:49.409Z,25.00
2023-01-07T16:59:55.693Z,21.77
2023-01-07T17:05:20.383Z,22.60
2023-01-07T17:10:33.338Z,20.33
2023-01-07T17:15:39.752Z,29.87
2023-01-07T17:21:02.169Z,22.67
2023-01-07T17:26:11.326Z,32.40
2023-01-07T17:31:14.702Z,24.33
2023-01-07T17:36:19.608Z,26.37
2023-01-07T17:41:42.197Z,23.57
2023-01-07T17:46:45.291Z,25.30
2023-01-07T17:51:48.902Z,32.97
2023-01-07T17:56:52.730Z,28.90
2023-01-07T18:01:57.103Z,28.80
2023-01-07T18:07:00.220Z,42.00
2023-01-07T18:12:22.224Z,31.30
2023-01-07T18:17:25.589Z,29.70
2023-01-07T18:22:29.992Z,26.70
2023-01-07T18:27:33.195Z,31.20
2023-01-07T18:32:36.583Z,28.83
2023-01-07T18:37:39.965Z,31.90
2023-01-07T18:42:43.790Z,27.83
2023-01-07T18:47:46.925Z,27.20
2023-01-07T18:52:50.004Z,29.80
2023-01-07T18:57:53.771Z,26.33
2023-01-07T19:03:00.623Z,33.93
2023-01-07T19:08:03.607Z,29.13
2023-01-07T19:13:06.536Z,32.53
2023-01-07T19:18:09.781Z,32.47
2023-01-07T19:23:12.928Z,33.50
2023-01-07T19:28:16.085Z,30.83
2023-01-07T19:33:19.299Z,36.93
2023-01-07T19:38:22.308Z,31.90
2023-01-07T19:43:25.587Z,33.13
2023-01-07T19:48:28.589Z,34.43
2023-01-07T19:53:32.233Z,33.53
2023-01-07T19:58:35.518Z,37.87
2023-01-07T20:03:38.719Z,34.20
2023-01-07T20:08:41.992Z,35.30
2023-01-07T20:13:47.041Z,36.57
2023-01-07T20:18:52.922Z,34.53
2023-01-07T20:23:55.890Z,37.67
2023-01-07T20:28:59.541Z,36.07
2023-01-07T20:34:03.114Z,38.63
2023-01-07T20:39:06.577Z,37.03
2023-01-07T20:44:11.624Z,34.93
2023-01-07T20:49:16.157Z,31.40
2023-01-07T20:54:19.565Z,32.77
2023-01-07T20:59:23.031Z,32.57
2023-01-07T21:04:29.317Z,31.67
2023-01-07T21:09:32.500Z,34.03
2023-01-07T21:14:35.611Z,35.43
2023-01-07T21:19:38.761Z,33.03
2023-01-07T21:24:41.751Z,35.70
2023-01-07T21:29:44.916Z,37.03
2023-01-07T21:34:48.021Z,42.40
2023-01-07T21:39:51.669Z,35.23
2023-01-07T21:44:54.563Z,35.70
2023-01-07T21:49:57.448Z,35.83
2023-01-07T21:55:00.459Z,35.93
2023-01-07T22:00:05.344Z,33.70
2023-01-07T22:05:15.331Z,35.37
2023-01-07T22:10:18.593Z,34.07
2023-01-07T22:15:21.556Z,32.10
2023-01-07T22:20:24.670Z,36.83
2023-01-07T22:25:27.758Z,37.87
2023-01-07T22:30:33.493Z,36.47
2023-01-07T22:35:36.605Z,35.97
2023-01-07T22:40:39.882Z,35.63
2023-01-07T22:45:45.798Z,37.73
2023-01-07T22:50:49.070Z,37.27
2023-01-07T22:55:52.443Z,37.73
2023-01-07T23:00:58.826Z,36.10
2023-01-07T23:06:01.836Z,34.70
2023-01-07T23:11:05.539Z,36.40
2023-01-07T23:16:08.756Z,35.60
2023-01-07T23:21:11.661Z,35.00
2023-01-07T23:26:15.124Z,34.47
2023-01-07T23:31:18.183Z,34.40
2023-01-07T23:36:21.395Z,30.33
2023-01-07T23:41:24.492Z,32.33
2023-01-07T23:46:27.554Z,31.37
2023-01-07T23:51:30.530Z,34.77
2023-01-07T23:56:33.784Z,33.23
